createdAt,value
2018-01-29T00:02:01.790Z,6.03
2018-01-29T00:04:30.690Z,5.80
2018-01-29T00:06:59.536Z,6.33
2018-01-29T00:09:29.396Z,5.73
2018-01-29T00:11:58.270Z,5.90
2018-01-29T00:14:27.118Z,6.30
2018-01-29T00:16:55.988Z,6.53
2018-01-29T00:19:24.869Z,6.37
2018-01-29T00:21:53.702Z,6.50
2018-01-29T00:24:23.064Z,6.47
2018-01-29T00:26:52.716Z,6.87
2018-01-29T00:29:21.546Z,5.97
2018-01-29T00:31:50.397Z,6.63
2018-01-29T00:34:19.292Z,6.30
2018-01-29T00:36:48.124Z,6.90
2018-01-29T00:39:17.016Z,7.03
2018-01-29T00:41:45.908Z,6.20
2018-01-29T00:44:14.792Z,6.73
2018-01-29T00:46:43.634Z,6.90
2018-01-29T00:49:12.512Z,6.57
2018-01-29T00:51:41.400Z,6.80
2018-01-29T00:54:10.264Z,7.00
2018-01-29T00:56:39.109Z,6.67
2018-01-29T00:59:07.950Z,6.17
2018-01-29T01:01:36.816Z,6.37
2018-01-29T01:04:05.664Z,7.27
2018-01-29T01:06:34.498Z,6.60
2018-01-29T01:09:04.089Z,6.53
2018-01-29T01:11:32.952Z,6.17
2018-01-29T01:14:01.804Z,7.03
2018-01-29T01:16:30.650Z,6.30
2018-01-29T01:19:00.260Z,6.87
2018-01-29T01:21:29.112Z,6.53
2018-01-29T01:23:57.974Z,6.30
2018-01-29T01:26:26.870Z,6.33
2018-01-29T01:28:55.706Z,6.40
2018-01-29T01:31:24.570Z,6.47
2018-01-29T01:33:53.426Z,5.77
2018-01-29T01:36:22.272Z,6.23
2018-01-29T01:38:51.102Z,6.60
2018-01-29T01:41:19.967Z,5.60
2018-01-29T01:43:48.839Z,5.77
2018-01-29T01:46:18.082Z,6.23
2018-01-29T01:48:46.955Z,5.70
2018-01-29T01:51:16.662Z,5.93
2018-01-29T01:53:45.996Z,5.90
2018-01-29T01:56:14.906Z,6.17
2018-01-29T01:58:43.895Z,6.07
2018-01-29T02:01:12.761Z,6.20
2018-01-29T02:03:41.598Z,5.97
2018-01-29T02:06:10.436Z,6.83
2018-01-29T02:08:39.292Z,5.77
2018-01-29T02:11:08.136Z,5.60
2018-01-29T02:13:36.982Z,5.40
2018-01-29T02:16:05.824Z,5.70
2018-01-29T02:18:34.726Z,5.27
2018-01-29T02:21:03.771Z,4.83
2018-01-29T02:23:32.603Z,5.00
2018-01-29T02:26:01.481Z,4.97
2018-01-29T02:28:30.310Z,4.90
2018-01-29T02:30:59.140Z,5.10
2018-01-29T02:33:27.999Z,5.20
2018-01-29T02:35:56.834Z,5.30
2018-01-29T02:38:25.685Z,4.90
2018-01-29T02:40:54.586Z,5.03
2018-01-29T02:43:23.412Z,4.23
2018-01-29T02:45:53.222Z,5.33
2018-01-29T02:48:22.102Z,5.30
2018-01-29T02:50:51.828Z,3.63
2018-01-29T02:53:20.664Z,4.40
2018-01-29T02:55:49.512Z,4.37
2018-01-29T02:58:18.606Z,4.03
2018-01-29T03:00:48.069Z,4.13
2018-01-29T03:03:17.706Z,3.57
2018-01-29T03:05:47.338Z,3.93
2018-01-29T03:08:16.182Z,3.60
2018-01-29T03:10:45.030Z,3.60
2018-01-29T03:13:13.888Z,3.30
2018-01-29T03:15:42.746Z,3.50
2018-01-29T03:18:11.621Z,3.53
2018-01-29T03:20:40.534Z,3.60
2018-01-29T03:23:09.397Z,3.53
2018-01-29T03:25:38.288Z,3.77
2018-01-29T03:28:07.116Z,3.20
2018-01-29T03:30:35.967Z,3.40
2018-01-29T03:33:04.878Z,3.10
2018-01-29T03:35:33.738Z,3.80
2018-01-29T03:38:03.680Z,3.10
2018-01-29T03:40:32.536Z,3.77
2018-01-29T03:43:01.698Z,3.00
2018-01-29T03:45:30.534Z,3.37
2018-01-29T03:47:59.434Z,3.53
2018-01-29T03:50:28.288Z,4.20
2018-01-29T03:52:57.119Z,3.50
2018-01-29T03:55:25.976Z,3.63
2018-01-29T03:57:55.702Z,3.70
2018-01-29T04:00:24.525Z,3.60
2018-01-29T04:02:53.378Z,3.43
2018-01-29T04:05:22.210Z,3.10
2018-01-29T04:07:51.050Z,3.20
2018-01-29T04:10:20.892Z,3.30
2018-01-29T04:12:50.292Z,3.37
2018-01-29T04:15:19.824Z,3.27
2018-01-29T04:17:48.724Z,3.43
2018-01-29T04:20:17.551Z,3.23
2018-01-29T04:22:46.394Z,4.03
2018-01-29T04:25:15.246Z,3.40
2018-01-29T04:27:44.081Z,3.60
2018-01-29T04:30:12.912Z,3.60
2018-01-29T04:32:41.802Z,3.23
2018-01-29T04:35:10.632Z,3.40
2018-01-29T04:37:39.479Z,3.27
2018-01-29T04:40:08.336Z,3.43
2018-01-29T04:42:37.172Z,3.30
2018-01-29T04:45:06.018Z,3.40
2018-01-29T04:47:35.060Z,3.57
2018-01-29T04:50:03.901Z,3.97
2018-01-29T04:52:32.780Z,3.83
2018-01-29T04:55:01.640Z,3.40
2018-01-29T04:57:31.250Z,4.53
2018-01-29T05:00:00.102Z,4.20
2018-01-29T05:02:28.980Z,4.03
2018-01-29T05:04:57.818Z,3.27
2018-01-29T05:07:26.672Z,3.63
2018-01-29T05:09:55.541Z,3.23
2018-01-29T05:12:25.216Z,3.63
2018-01-29T05:14:54.056Z,3.73
2018-01-29T05:17:22.944Z,3.40
2018-01-29T05:19:53.808Z,3.60
2018-01-29T05:22:22.669Z,3.63
2018-01-29T05:24:51.616Z,3.80
2018-01-29T05:27:20.814Z,3.77
2018-01-29T05:29:49.962Z,3.77
2018-01-29T05:32:19.811Z,3.57
2018-01-29T05:34:49.456Z,3.47
2018-01-29T05:37:22.992Z,3.50
2018-01-29T05:39:51.873Z,3.60
2018-01-29T05:42:20.898Z,4.50
2018-01-29T05:44:49.848Z,3.27
2018-01-29T05:47:18.689Z,3.53
2018-01-29T05:49:48.071Z,4.10
2018-01-29T05:52:16.958Z,3.60
2018-01-29T05:54:46.054Z,3.70
2018-01-29T05:57:15.416Z,8.60
2018-01-29T05:59:45.226Z,4.60
2018-01-29T06:02:14.054Z,3.43
2018-01-29T06:04:42.964Z,3.60
2018-01-29T06:07:11.844Z,7.80
2018-01-29T06:09:40.687Z,3.77
2018-01-29T06:12:09.549Z,3.07
2018-01-29T06:14:38.396Z,3.20
2018-01-29T06:17:07.232Z,3.03
2018-01-29T06:19:36.075Z,4.13
2018-01-29T06:22:05.286Z,3.23
2018-01-29T06:24:34.970Z,3.30
2018-01-29T06:27:03.830Z,3.63
2018-01-29T06:29:32.706Z,3.37
2018-01-29T06:32:01.544Z,3.83
2018-01-29T06:34:30.381Z,3.37
2018-01-29T06:36:59.238Z,3.60
2018-01-29T06:39:28.116Z,3.20
2018-01-29T06:41:56.982Z,3.20
2018-01-29T06:44:25.905Z,4.20
2018-01-29T06:46:54.752Z,3.67
2018-01-29T06:49:23.623Z,3.60
2018-01-29T06:51:52.506Z,3.50
2018-01-29T06:54:28.264Z,3.57
2018-01-29T06:56:57.128Z,3.17
2018-01-29T06:59:26.020Z,3.60
2018-01-29T07:01:54.889Z,3.30
2018-01-29T07:04:23.760Z,3.33
2018-01-29T07:06:52.597Z,3.20
2018-01-29T07:09:21.438Z,3.73
2018-01-29T07:11:50.312Z,3.83
2018-01-29T07:14:20.700Z,3.20
2018-01-29T07:16:49.543Z,3.20
2018-01-29T07:19:18.400Z,3.23
2018-01-29T07:21:48.186Z,2.73
2018-01-29T07:24:17.968Z,3.50
2018-01-29T07:26:46.796Z,5.23
2018-01-29T07:29:15.629Z,2.83
2018-01-29T07:31:45.245Z,3.03
2018-01-29T07:34:14.083Z,2.70
2018-01-29T07:36:42.939Z,2.30
2018-01-29T07:39:11.816Z,2.53
2018-01-29T07:41:40.679Z,3.47
2018-01-29T07:44:09.632Z,2.43
2018-01-29T07:46:38.548Z,2.60
2018-01-29T07:49:07.392Z,2.67
2018-01-29T07:51:36.224Z,2.17
2018-01-29T07:54:05.182Z,3.10
2018-01-29T07:56:34.706Z,2.83
2018-01-29T07:59:03.550Z,2.83
2018-01-29T08:04:08.080Z,3.60
2018-01-29T08:06:36.945Z,5.50
2018-01-29T08:09:08.598Z,3.40
2018-01-29T08:11:38.414Z,6.63
2018-01-29T08:14:07.261Z,3.50
2018-01-29T08:16:37.057Z,3.17
2018-01-29T08:19:10.251Z,3.10
2018-01-29T08:21:39.095Z,3.17
2018-01-29T08:24:07.935Z,2.97
2018-01-29T08:26:36.791Z,3.00
2018-01-29T08:29:05.673Z,2.70
2018-01-29T08:31:36.241Z,2.93
2018-01-29T08:34:10.677Z,3.13
2018-01-29T08:36:43.339Z,3.57
2018-01-29T08:39:15.602Z,3.00
2018-01-29T08:41:45.427Z,3.97
2018-01-29T08:44:14.511Z,3.00
2018-01-29T08:46:43.424Z,3.03
2018-01-29T08:49:12.283Z,3.97
2018-01-29T08:51:41.151Z,2.73
2018-01-29T08:54:11.285Z,3.03
2018-01-29T08:56:40.148Z,3.00
2018-01-29T08:59:09.028Z,2.70
2018-01-29T09:01:37.877Z,2.90
2018-01-29T09:04:08.115Z,2.77
2018-01-29T09:06:36.975Z,2.73
2018-01-29T09:09:05.882Z,2.77
2018-01-29T09:11:34.729Z,2.60
2018-01-29T09:14:03.586Z,2.53
2018-01-29T09:16:32.467Z,2.30
2018-01-29T09:19:03.058Z,2.17
2018-01-29T09:21:32.413Z,2.47
2018-01-29T09:24:03.484Z,2.27
2018-01-29T09:26:34.776Z,2.40
2018-01-29T09:29:04.756Z,2.43
2018-01-29T09:31:34.836Z,2.70
2018-01-29T09:34:03.679Z,2.50
2018-01-29T09:36:33.345Z,3.03
2018-01-29T09:39:02.212Z,3.00
2018-01-29T09:41:31.678Z,3.30
2018-01-29T09:44:01.271Z,3.23
2018-01-29T09:46:30.160Z,2.87
2018-01-29T09:48:59.002Z,3.13
2018-01-29T09:54:14.146Z,2.90
2018-01-29T09:56:45.551Z,2.93
2018-01-29T09:59:14.383Z,3.23
2018-01-29T10:01:44.928Z,2.70
2018-01-29T10:04:13.760Z,3.20
2018-01-29T10:06:43.343Z,3.00
2018-01-29T10:09:12.207Z,3.00
2018-01-29T10:11:41.976Z,3.00
2018-01-29T10:14:10.858Z,3.60
2018-01-29T10:16:41.090Z,3.30
2018-01-29T10:19:10.042Z,3.00
2018-01-29T10:21:49.112Z,3.30
2018-01-29T10:24:17.987Z,2.80
2018-01-29T10:26:46.845Z,3.57
2018-01-29T10:29:15.684Z,3.47
2018-01-29T10:31:44.524Z,3.33
2018-01-29T10:34:13.432Z,3.77
2018-01-29T10:36:42.812Z,3.40
2018-01-29T10:39:12.490Z,3.60
2018-01-29T10:41:41.369Z,3.77
2018-01-29T10:44:10.466Z,3.70
2018-01-29T10:46:40.296Z,3.30
2018-01-29T10:49:10.078Z,3.10
2018-01-29T10:51:40.555Z,3.57
2018-01-29T10:54:09.412Z,3.47
2018-01-29T10:56:40.012Z,3.53
2018-01-29T10:59:10.146Z,4.20
2018-01-29T11:01:46.867Z,3.97
2018-01-29T11:04:15.712Z,3.10
2018-01-29T11:06:46.326Z,4.20
2018-01-29T11:09:15.183Z,4.50
2018-01-29T11:11:44.384Z,4.40
2018-01-29T11:14:13.256Z,3.50
2018-01-29T11:16:42.137Z,3.93
2018-01-29T11:19:11.012Z,4.93
2018-01-29T11:21:40.887Z,3.93
2018-01-29T11:24:09.762Z,3.90
2018-01-29T11:26:38.652Z,3.80
2018-01-29T11:29:07.516Z,4.00
2018-01-29T11:31:36.366Z,3.30
2018-01-29T11:34:05.202Z,3.53
2018-01-29T11:36:34.060Z,3.47
2018-01-29T11:39:02.910Z,3.57
2018-01-29T11:41:31.755Z,4.30
2018-01-29T11:44:00.670Z,3.13
2018-01-29T11:46:30.246Z,3.67
2018-01-29T11:48:59.127Z,2.83
2018-01-29T11:51:28.799Z,2.73
2018-01-29T11:53:57.630Z,3.23
2018-01-29T11:56:26.502Z,3.40
2018-01-29T11:58:55.357Z,3.10
2018-01-29T12:01:24.200Z,2.70
2018-01-29T12:03:53.068Z,2.57
2018-01-29T12:06:21.926Z,3.07
2018-01-29T12:08:51.113Z,3.10
2018-01-29T12:11:19.999Z,2.80
2018-01-29T12:13:48.887Z,3.00
2018-01-29T12:16:17.984Z,3.70
2018-01-29T12:18:46.827Z,3.50
2018-01-29T12:21:15.702Z,3.33
2018-01-29T12:23:44.540Z,3.77
2018-01-29T12:26:13.380Z,3.90
2018-01-29T12:28:42.276Z,4.13
2018-01-29T12:31:11.165Z,4.00
2018-01-29T12:33:40.002Z,4.20
2018-01-29T12:36:08.910Z,4.27
2018-01-29T12:38:38.619Z,4.20
2018-01-29T12:41:07.942Z,4.40
2018-01-29T12:43:36.806Z,4.60
2018-01-29T12:46:05.752Z,4.77
2018-01-29T12:48:34.598Z,4.80
2018-01-29T12:51:03.496Z,4.97
2018-01-29T12:53:32.349Z,4.63
2018-01-29T12:56:01.962Z,4.97
2018-01-29T12:58:30.854Z,4.30
2018-01-29T13:01:00.858Z,4.27
2018-01-29T13:03:29.934Z,4.00
2018-01-29T13:05:59.852Z,3.97
2018-01-29T13:08:28.712Z,3.43
2018-01-29T13:10:57.580Z,3.00
2018-01-29T13:13:26.416Z,3.17
2018-01-29T13:15:55.246Z,2.60
2018-01-29T13:18:24.918Z,3.03
2018-01-29T13:20:54.740Z,5.30
2018-01-29T13:23:23.570Z,3.50
2018-01-29T13:25:52.453Z,2.57
2018-01-29T13:28:21.292Z,2.67
2018-01-29T13:30:50.730Z,2.27
2018-01-29T13:33:20.539Z,2.30
2018-01-29T13:35:49.384Z,2.20
2018-01-29T13:38:18.264Z,2.60
2018-01-29T13:40:47.099Z,2.47
2018-01-29T13:43:15.944Z,3.17
2018-01-29T13:45:44.803Z,2.47
2018-01-29T13:48:13.673Z,2.70
2018-01-29T13:50:43.316Z,2.63
2018-01-29T13:53:12.214Z,2.37
2018-01-29T13:55:41.089Z,2.53
2018-01-29T13:58:09.929Z,3.17
2018-01-29T14:00:38.812Z,2.77
2018-01-29T14:03:07.660Z,3.20
2018-01-29T14:05:36.512Z,2.47
2018-01-29T14:08:05.368Z,2.40
2018-01-29T14:10:34.974Z,2.00
2018-01-29T14:13:03.820Z,1.93
2018-01-29T14:15:33.240Z,2.00
2018-01-29T14:18:02.095Z,2.10
2018-01-29T14:20:30.924Z,2.03
2018-01-29T14:22:59.776Z,2.15
2018-01-29T14:25:28.600Z,1.77
2018-01-29T14:27:57.430Z,1.87
2018-01-29T14:30:26.336Z,2.10
2018-01-29T14:32:55.162Z,1.60
2018-01-29T14:35:24.724Z,2.13
2018-01-29T14:37:53.602Z,2.10
2018-01-29T14:40:22.448Z,2.87
2018-01-29T14:42:51.310Z,2.30
2018-01-29T14:45:20.159Z,2.53
2018-01-29T14:47:48.998Z,2.67
2018-01-29T14:50:17.888Z,2.50
2018-01-29T14:52:46.744Z,2.20
2018-01-29T14:55:15.602Z,2.63
2018-01-29T14:57:44.460Z,2.70
2018-01-29T15:00:13.312Z,2.63
2018-01-29T15:02:42.154Z,3.13
2018-01-29T15:05:10.987Z,2.83
2018-01-29T15:07:39.888Z,2.63
2018-01-29T15:10:09.771Z,3.10
2018-01-29T15:12:38.610Z,2.70
2018-01-29T15:15:07.480Z,3.30
2018-01-29T15:17:36.334Z,2.73
2018-01-29T15:20:05.228Z,3.10
2018-01-29T15:22:34.112Z,2.70
2018-01-29T15:25:03.740Z,5.93
2018-01-29T15:27:32.586Z,5.17
2018-01-29T15:30:01.786Z,5.90
2018-01-29T15:32:32.353Z,4.23
2018-01-29T15:35:01.312Z,5.03
2018-01-29T15:37:30.160Z,4.63
2018-01-29T15:39:58.990Z,3.63
2018-01-29T15:42:27.877Z,3.53
2018-01-29T15:44:57.721Z,3.67
2018-01-29T15:47:26.578Z,6.20
2018-01-29T15:49:57.457Z,5.50
2018-01-29T15:52:50.855Z,4.90
2018-01-29T15:55:22.048Z,4.63
2018-01-29T15:57:50.966Z,7.60
2018-01-29T16:00:26.474Z,4.87
2018-01-29T16:02:56.023Z,4.20
2018-01-29T16:05:25.910Z,4.27
2018-01-29T16:07:54.832Z,3.57
2018-01-29T16:10:24.438Z,3.90
2018-01-29T16:12:53.304Z,4.23
2018-01-29T16:15:23.170Z,3.87
2018-01-29T16:17:52.697Z,4.00
2018-01-29T16:20:22.140Z,4.37
2018-01-29T16:22:52.181Z,8.83
2018-01-29T16:25:21.032Z,4.07
2018-01-29T16:27:49.922Z,4.23
2018-01-29T16:30:18.833Z,7.97
2018-01-29T16:32:47.668Z,3.87
2018-01-29T16:35:16.527Z,5.07
2018-01-29T16:37:45.407Z,5.33
2018-01-29T16:40:14.265Z,4.53
2018-01-29T16:42:43.141Z,4.63
2018-01-29T16:45:12.963Z,6.57
2018-01-29T16:47:41.808Z,6.93
2018-01-29T16:50:11.520Z,6.10
2018-01-29T16:52:40.378Z,5.47
2018-01-29T16:55:09.573Z,6.13
2018-01-29T16:57:38.400Z,6.23
2018-01-29T17:00:07.296Z,6.17
2018-01-29T17:02:36.173Z,6.37
2018-01-29T17:05:05.034Z,6.33
2018-01-29T17:07:33.931Z,7.23
2018-01-29T17:10:02.917Z,5.90
2018-01-29T17:15:06.980Z,7.93
2018-01-29T17:17:35.846Z,6.27
2018-01-29T17:20:04.732Z,8.20
2018-01-29T17:22:33.646Z,9.03
2018-01-29T17:25:02.482Z,9.03
2018-01-29T17:27:31.357Z,7.70
2018-01-29T17:30:00.340Z,8.97
2018-01-29T17:32:29.186Z,9.30
2018-01-29T17:34:58.137Z,9.30
2018-01-29T17:37:27.005Z,8.90
2018-01-29T17:39:55.841Z,9.27
2018-01-29T17:42:24.717Z,9.47
2018-01-29T17:44:54.671Z,8.20
2018-01-29T17:47:23.501Z,9.47
2018-01-29T17:49:52.351Z,7.23
2018-01-29T17:52:21.295Z,5.10
2018-01-29T17:54:50.193Z,4.67
2018-01-29T17:57:19.025Z,4.13
2018-01-29T17:59:47.909Z,3.77
2018-01-29T18:02:16.805Z,3.93
2018-01-29T18:04:45.648Z,3.17
2018-01-29T18:07:14.510Z,3.60
2018-01-29T18:09:43.352Z,3.80
2018-01-29T18:12:12.194Z,3.20
2018-01-29T18:14:42.120Z,3.07
2018-01-29T18:17:11.836Z,3.27
2018-01-29T18:19:40.686Z,4.03
2018-01-29T18:22:09.583Z,3.40
2018-01-29T18:24:38.445Z,3.17
2018-01-29T18:27:07.932Z,2.90
2018-01-29T18:29:36.808Z,3.90
2018-01-29T18:32:05.650Z,3.63
2018-01-29T18:34:34.567Z,3.23
2018-01-29T18:37:03.470Z,3.47
2018-01-29T18:39:32.980Z,3.20
2018-01-29T18:42:01.824Z,3.40
2018-01-29T18:44:31.547Z,3.20
2018-01-29T18:47:01.218Z,3.53
2018-01-29T18:49:31.336Z,3.10
2018-01-29T18:52:00.222Z,3.70
2018-01-29T18:54:29.117Z,4.30
2018-01-29T18:56:58.002Z,4.30
2018-01-29T18:59:26.847Z,3.77
2018-01-29T19:01:55.707Z,4.30
2018-01-29T19:04:26.234Z,5.00
2018-01-29T19:06:55.061Z,5.63
2018-01-29T19:09:23.958Z,5.07
2018-01-29T19:11:52.842Z,4.90
2018-01-29T19:14:21.676Z,4.50
2018-01-29T19:16:50.531Z,5.20
2018-01-29T19:19:19.383Z,4.27
2018-01-29T19:21:48.223Z,4.43
2018-01-29T19:24:17.049Z,5.57
2018-01-29T19:26:45.937Z,4.40
2018-01-29T19:29:15.306Z,4.20
2018-01-29T19:31:44.192Z,4.40
2018-01-29T19:34:13.054Z,3.90
2018-01-29T19:36:41.892Z,4.47
2018-01-29T19:39:10.771Z,4.43
2018-01-29T19:41:39.669Z,3.57
2018-01-29T19:44:08.575Z,3.70
2018-01-29T19:46:37.393Z,3.47
2018-01-29T19:49:06.330Z,3.90
2018-01-29T19:51:35.296Z,3.63
2018-01-29T19:54:04.175Z,3.53
2018-01-29T19:56:33.320Z,3.40
2018-01-29T19:59:02.205Z,3.73
2018-01-29T20:01:31.263Z,3.67
2018-01-29T20:04:00.184Z,3.83
2018-01-29T20:06:29.474Z,5.90
2018-01-29T20:08:58.319Z,5.40
2018-01-29T20:11:27.259Z,4.70
2018-01-29T20:13:56.135Z,4.00
2018-01-29T20:16:24.988Z,3.80
2018-01-29T20:18:53.844Z,4.20
2018-01-29T20:21:22.674Z,4.30
2018-01-29T20:23:51.928Z,4.27
2018-01-29T20:26:20.824Z,4.10
2018-01-29T20:28:49.675Z,3.87
2018-01-29T20:31:19.593Z,4.00
2018-01-29T20:33:48.498Z,3.80
2018-01-29T20:36:17.738Z,4.40
2018-01-29T20:38:46.595Z,4.40
2018-01-29T20:41:15.509Z,4.10
2018-01-29T20:43:44.344Z,4.03
2018-01-29T20:46:13.183Z,4.30
2018-01-29T20:48:42.030Z,4.27
2018-01-29T20:51:11.807Z,4.03
2018-01-29T20:53:40.688Z,4.17
2018-01-29T20:56:09.532Z,4.00
2018-01-29T20:58:38.391Z,3.53
2018-01-29T21:01:08.208Z,4.50
2018-01-29T21:03:37.210Z,3.93
2018-01-29T21:06:06.048Z,4.07
2018-01-29T21:08:35.706Z,3.57
2018-01-29T21:11:04.546Z,4.23
2018-01-29T21:13:33.642Z,3.63
2018-01-29T21:16:02.511Z,3.87
2018-01-29T21:18:31.381Z,5.77
2018-01-29T21:21:01.388Z,4.37
2018-01-29T21:23:30.292Z,4.10
2018-01-29T21:25:59.785Z,3.87
2018-01-29T21:28:28.629Z,4.23
2018-01-29T21:30:57.500Z,4.93
2018-01-29T21:33:26.385Z,4.60
2018-01-29T21:35:55.293Z,5.27
2018-01-29T21:38:24.227Z,6.13
2018-01-29T21:40:54.500Z,5.63
2018-01-29T21:43:23.386Z,4.80
2018-01-29T21:45:52.269Z,4.20
2018-01-29T21:48:21.176Z,4.00
2018-01-29T21:50:56.335Z,4.00
2018-01-29T21:53:25.566Z,4.00
2018-01-29T21:55:54.445Z,3.87
2018-01-29T21:58:23.339Z,3.97
2018-01-29T22:00:52.286Z,4.37
2018-01-29T22:03:21.164Z,4.00
2018-01-29T22:05:50.090Z,4.53
2018-01-29T22:08:19.532Z,5.23
2018-01-29T22:10:48.396Z,4.63
2018-01-29T22:13:17.290Z,4.53
2018-01-29T22:15:46.172Z,4.90
2018-01-29T22:18:15.064Z,4.73
2018-01-29T22:20:43.936Z,4.30
2018-01-29T22:23:12.788Z,4.63
2018-01-29T22:25:41.690Z,4.73
2018-01-29T22:28:10.728Z,4.87
2018-01-29T22:30:41.365Z,4.70
2018-01-29T22:33:10.286Z,4.23
2018-01-29T22:35:39.912Z,4.80
2018-01-29T22:38:09.008Z,4.87
2018-01-29T22:40:37.872Z,4.60
2018-01-29T22:43:06.837Z,4.33
2018-01-29T22:45:35.835Z,4.50
2018-01-29T22:48:04.689Z,4.60
2018-01-29T22:50:33.531Z,5.10
2018-01-29T22:53:02.445Z,5.90
2018-01-29T22:55:31.311Z,6.40
2018-01-29T22:58:04.662Z,5.27
2018-01-29T23:00:33.572Z,4.87
2018-01-29T23:03:03.114Z,4.67
2018-01-29T23:05:32.016Z,4.70
2018-01-29T23:08:00.884Z,5.27
2018-01-29T23:10:29.876Z,5.40
2018-01-29T23:12:58.715Z,4.43
2018-01-29T23:15:27.600Z,5.00
2018-01-29T23:17:56.483Z,4.33
2018-01-29T23:20:25.351Z,5.03
2018-01-29T23:22:54.184Z,4.63
2018-01-29T23:25:23.067Z,4.37
2018-01-29T23:27:51.927Z,3.97
2018-01-29T23:30:20.796Z,3.53
2018-01-29T23:32:49.766Z,4.40
2018-01-29T23:35:18.623Z,4.30
2018-01-29T23:37:47.462Z,5.47
2018-01-29T23:40:16.691Z,5.30
2018-01-29T23:42:45.565Z,4.93
2018-01-29T23:45:14.768Z,5.00
2018-01-29T23:47:43.724Z,5.50
2018-01-29T23:50:13.322Z,6.57
2018-01-29T23:52:42.259Z,4.87
2018-01-29T23:55:11.220Z,4.30
2018-01-29T23:57:40.068Z,4.50
